sensor_id;sensor_type;location;lat;lon;timestamp;P1;durP1;ratioP1;P2;durP2;ratioP2
48871;SDS011;36154;51.674;7.824;2023-04-01T00:01:01;0.40;;;0.20;;
48871;SDS011;36154;51.674;7.824;2023-04-01T00:03:28;1.48;;;0.20;;
48871;SDS011;36154;51.674;7.824;2023-04-01T00:05:55;0.20;;;0.20;;
48871;SDS011;36154;51.674;7.824;2023-04-01T00:08:21;0.20;;;0.20;;
48871;SDS011;36154;51.674;7.824;2023-04-01T00:10:46;0.10;;;0.10;;
48871;SDS011;36154;51.674;7.824;2023-04-01T00:13:12;0.98;;;0.10;;
48871;SDS011;36154;51.674;7.824;2023-04-01T00:15:37;0.17;;;0.17;;
48871;SDS011;36154;51.674;7.824;2023-04-01T00:18:03;0.30;;;0.22;;
48871;SDS011;36154;51.674;7.824;2023-04-01T00:20:29;0.85;;;0.20;;
48871;SDS011;36154;51.674;7.824;2023-04-01T00:22:55;0.13;;;0.13;;
48871;SDS011;36154;51.674;7.824;2023-04-01T00:25:21;0.20;;;0.20;;
48871;SDS011;36154;51.674;7.824;2023-04-01T00:27:46;0.20;;;0.10;;
48871;SDS011;36154;51.674;7.824;2023-04-01T00:30:12;0.10;;;0.10;;
48871;SDS011;36154;51.674;7.824;2023-04-01T00:32:37;0.32;;;0.20;;
48871;SDS011;36154;51.674;7.824;2023-04-01T00:35:03;0.20;;;0.20;;
48871;SDS011;36154;51.674;7.824;2023-04-01T00:37:29;0.93;;;0.20;;
48871;SDS011;36154;51.674;7.824;2023-04-01T00:39:55;0.10;;;0.10;;
48871;SDS011;36154;51.674;7.824;2023-04-01T00:42:21;0.10;;;0.10;;
48871;SDS011;36154;51.674;7.824;2023-04-01T00:44:50;0.10;;;0.10;;
48871;SDS011;36154;51.674;7.824;2023-04-01T00:47:19;0.10;;;0.10;;
48871;SDS011;36154;51.674;7.824;2023-04-01T00:49:46;0.10;;;0.10;;
48871;SDS011;36154;51.674;7.824;2023-04-01T00:52:15;0.45;;;0.10;;
48871;SDS011;36154;51.674;7.824;2023-04-01T00:54:44;0.30;;;0.20;;
48871;SDS011;36154;51.674;7.824;2023-04-01T00:57:24;0.20;;;0.20;;
48871;SDS011;36154;51.674;7.824;2023-04-01T00:59:54;0.10;;;0.10;;
48871;SDS011;36154;51.674;7.824;2023-04-01T01:02:20;0.10;;;0.10;;
48871;SDS011;36154;51.674;7.824;2023-04-01T01:04:46;0.30;;;0.20;;
48871;SDS011;36154;51.674;7.824;2023-04-01T01:12:55;0.10;;;0.10;;
48871;SDS011;36154;51.674;7.824;2023-04-01T01:18:01;0.13;;;0.10;;
48871;SDS011;36154;51.674;7.824;2023-04-01T01:31:56;0.10;;;0.10;;
48871;SDS011;36154;51.674;7.824;2023-04-01T01:37:13;0.10;;;0.10;;
48871;SDS011;36154;51.674;7.824;2023-04-01T01:39:41;0.10;;;0.10;;
48871;SDS011;36154;51.674;7.824;2023-04-01T01:42:09;0.15;;;0.13;;
48871;SDS011;36154;51.674;7.824;2023-04-01T01:44:38;0.20;;;0.20;;
48871;SDS011;36154;51.674;7.824;2023-04-01T01:47:06;0.10;;;0.10;;
48871;SDS011;36154;51.674;7.824;2023-04-01T01:49:32;0.10;;;0.10;;
48871;SDS011;36154;51.674;7.824;2023-04-01T01:52:00;0.10;;;0.10;;
48871;SDS011;36154;51.674;7.824;2023-04-01T01:54:25;0.10;;;0.10;;
48871;SDS011;36154;51.674;7.824;2023-04-01T01:56:57;0.10;;;0.10;;
48871;SDS011;36154;51.674;7.824;2023-04-01T01:59:30;0.10;;;0.10;;
48871;SDS011;36154;51.674;7.824;2023-04-01T02:01:58;0.10;;;0.10;;
48871;SDS011;36154;51.674;7.824;2023-04-01T02:04:25;0.00;;;0.00;;
48871;SDS011;36154;51.674;7.824;2023-04-01T02:07:04;0.10;;;0.10;;
48871;SDS011;36154;51.674;7.824;2023-04-01T02:09:33;0.20;;;0.20;;
48871;SDS011;36154;51.674;7.824;2023-04-01T02:12:01;0.10;;;0.10;;
48871;SDS011;36154;51.674;7.824;2023-04-01T02:14:38;0.10;;;0.10;;
48871;SDS011;36154;51.674;7.824;2023-04-01T02:17:11;0.20;;;0.10;;
48871;SDS011;36154;51.674;7.824;2023-04-01T02:19:46;0.13;;;0.10;;
48871;SDS011;36154;51.674;7.824;2023-04-01T02:22:16;0.10;;;0.10;;
48871;SDS011;36154;51.674;7.824;2023-04-01T02:24:45;0.10;;;0.10;;
48871;SDS011;36154;51.674;7.824;2023-04-01T02:27:11;0.10;;;0.10;;
48871;SDS011;36154;51.674;7.824;2023-04-01T02:29:37;0.10;;;0.10;;
48871;SDS011;36154;51.674;7.824;2023-04-01T02:32:02;0.10;;;0.10;;
48871;SDS011;36154;51.674;7.824;2023-04-01T02:34:29;0.10;;;0.10;;
48871;SDS011;36154;51.674;7.824;2023-04-01T02:36:54;0.10;;;0.10;;
48871;SDS011;36154;51.674;7.824;2023-04-01T02:39:20;0.10;;;0.10;;
48871;SDS011;36154;51.674;7.824;2023-04-01T02:41:46;0.15;;;0.15;;
48871;SDS011;36154;51.674;7.824;2023-04-01T02:44:12;0.10;;;0.10;;
48871;SDS011;36154;51.674;7.824;2023-04-01T02:46:39;0.10;;;0.10;;
48871;SDS011;36154;51.674;7.824;2023-04-01T02:49:05;0.10;;;0.10;;
48871;SDS011;36154;51.674;7.824;2023-04-01T02:51:30;0.10;;;0.10;;
48871;SDS011;36154;51.674;7.824;2023-04-01T02:53:56;0.10;;;0.10;;
48871;SDS011;36154;51.674;7.824;2023-04-01T02:56:21;0.10;;;0.10;;
48871;SDS011;36154;51.674;7.824;2023-04-01T02:58:46;0.70;;;0.10;;
48871;SDS011;36154;51.674;7.824;2023-04-01T03:01:12;0.35;;;0.10;;
48871;SDS011;36154;51.674;7.824;2023-04-01T03:03:37;0.10;;;0.10;;
48871;SDS011;36154;51.674;7.824;2023-04-01T03:06:07;0.10;;;0.10;;
48871;SDS011;36154;51.674;7.824;2023-04-01T03:08:35;0.10;;;0.10;;
48871;SDS011;36154;51.674;7.824;2023-04-01T03:11:00;0.10;;;0.10;;
48871;SDS011;36154;51.674;7.824;2023-04-01T03:13:25;0.17;;;0.17;;
48871;SDS011;36154;51.674;7.824;2023-04-01T03:15:51;0.10;;;0.10;;
48871;SDS011;36154;51.674;7.824;2023-04-01T03:18:16;0.00;;;0.00;;
48871;SDS011;36154;51.674;7.824;2023-04-01T03:20:42;0.15;;;0.15;;
48871;SDS011;36154;51.674;7.824;2023-04-01T03:23:08;0.10;;;0.10;;
48871;SDS011;36154;51.674;7.824;2023-04-01T03:25:33;0.00;;;0.00;;
48871;SDS011;36154;51.674;7.824;2023-04-01T03:27:58;0.10;;;0.10;;
48871;SDS011;36154;51.674;7.824;2023-04-01T03:30:24;0.30;;;0.22;;
48871;SDS011;36154;51.674;7.824;2023-04-01T03:32:50;0.00;;;0.00;;
48871;SDS011;36154;51.674;7.824;2023-04-01T03:35:15;0.00;;;0.00;;
48871;SDS011;36154;51.674;7.824;2023-04-01T03:37:41;0.10;;;0.10;;
48871;SDS011;36154;51.674;7.824;2023-04-01T03:40:07;0.10;;;0.10;;
48871;SDS011;36154;51.674;7.824;2023-04-01T03:42:32;0.10;;;0.10;;
48871;SDS011;36154;51.674;7.824;2023-04-01T03:44:58;0.10;;;0.10;;
48871;SDS011;36154;51.674;7.824;2023-04-01T03:47:23;0.10;;;0.10;;
48871;SDS011;36154;51.674;7.824;2023-04-01T03:49:48;0.10;;;0.10;;
48871;SDS011;36154;51.674;7.824;2023-04-01T03:52:14;0.10;;;0.10;;
48871;SDS011;36154;51.674;7.824;2023-04-01T03:54:39;0.10;;;0.10;;
48871;SDS011;36154;51.674;7.824;2023-04-01T03:57:05;0.10;;;0.10;;
48871;SDS011;36154;51.674;7.824;2023-04-01T03:59:30;0.10;;;0.10;;
48871;SDS011;36154;51.674;7.824;2023-04-01T04:01:55;0.10;;;0.10;;
48871;SDS011;36154;51.674;7.824;2023-04-01T04:04:21;0.10;;;0.10;;
48871;SDS011;36154;51.674;7.824;2023-04-01T04:06:46;0.10;;;0.10;;
48871;SDS011;36154;51.674;7.824;2023-04-01T04:09:11;0.10;;;0.10;;
48871;SDS011;36154;51.674;7.824;2023-04-01T04:11:37;0.10;;;0.10;;
48871;SDS011;36154;51.674;7.824;2023-04-01T04:14:02;0.10;;;0.10;;
48871;SDS011;36154;51.674;7.824;2023-04-01T04:16:28;0.10;;;0.10;;
48871;SDS011;36154;51.674;7.824;2023-04-01T04:18:53;0.10;;;0.10;;
48871;SDS011;36154;51.674;7.824;2023-04-01T04:21:18;0.10;;;0.10;;
48871;SDS011;36154;51.674;7.824;2023-04-01T04:23:44;0.10;;;0.10;;
48871;SDS011;36154;51.674;7.824;2023-04-01T04:26:10;0.20;;;0.20;;
48871;SDS011;36154;51.674;7.824;2023-04-01T04:28:37;0.10;;;0.10;;
48871;SDS011;36154;51.674;7.824;2023-04-01T04:31:03;0.10;;;0.10;;
48871;SDS011;36154;51.674;7.824;2023-04-01T04:33:30;0.00;;;0.00;;
48871;SDS011;36154;51.674;7.824;2023-04-01T04:35:56;0.10;;;0.10;;
48871;SDS011;36154;51.674;7.824;2023-04-01T04:38:22;0.10;;;0.10;;
48871;SDS011;36154;51.674;7.824;2023-04-01T04:40:48;0.10;;;0.10;;
48871;SDS011;36154;51.674;7.824;2023-04-01T04:43:14;0.10;;;0.10;;
48871;SDS011;36154;51.674;7.824;2023-04-01T04:45:40;0.10;;;0.10;;
48871;SDS011;36154;51.674;7.824;2023-04-01T04:48:10;0.10;;;0.10;;
48871;SDS011;36154;51.674;7.824;2023-04-01T04:50:41;0.00;;;0.00;;
48871;SDS011;36154;51.674;7.824;2023-04-01T04:53:06;0.10;;;0.10;;
48871;SDS011;36154;51.674;7.824;2023-04-01T04:55:34;0.10;;;0.10;;
48871;SDS011;36154;51.674;7.824;2023-04-01T04:57:59;0.00;;;0.00;;
48871;SDS011;36154;51.674;7.824;2023-04-01T05:00:24;0.10;;;0.10;;
48871;SDS011;36154;51.674;7.824;2023-04-01T05:02:50;0.10;;;0.10;;
48871;SDS011;36154;51.674;7.824;2023-04-01T05:05:15;0.57;;;0.10;;
48871;SDS011;36154;51.674;7.824;2023-04-01T05:07:40;0.22;;;0.10;;
48871;SDS011;36154;51.674;7.824;2023-04-01T05:10:06;0.10;;;0.10;;
48871;SDS011;36154;51.674;7.824;2023-04-01T05:12:31;0.10;;;0.10;;
48871;SDS011;36154;51.674;7.824;2023-04-01T05:15:01;0.10;;;0.05;;
48871;SDS011;36154;51.674;7.824;2023-04-01T05:17:27;0.03;;;0.03;;
48871;SDS011;36154;51.674;7.824;2023-04-01T05:19:52;0.10;;;0.10;;
48871;SDS011;36154;51.674;7.824;2023-04-01T05:22:20;0.10;;;0.10;;
48871;SDS011;36154;51.674;7.824;2023-04-01T05:24:45;0.08;;;0.08;;
48871;SDS011;36154;51.674;7.824;2023-04-01T05:27:10;0.10;;;0.10;;
48871;SDS011;36154;51.674;7.824;2023-04-01T05:29:36;0.10;;;0.10;;
48871;SDS011;36154;51.674;7.824;2023-04-01T05:32:01;0.05;;;0.03;;
48871;SDS011;36154;51.674;7.824;2023-04-01T05:34:26;0.00;;;0.00;;
48871;SDS011;36154;51.674;7.824;2023-04-01T05:36:52;0.10;;;0.10;;
48871;SDS011;36154;51.674;7.824;2023-04-01T05:39:17;0.03;;;0.03;;
48871;SDS011;36154;51.674;7.824;2023-04-01T05:41:43;0.47;;;0.10;;
48871;SDS011;36154;51.674;7.824;2023-04-01T05:44:10;0.00;;;0.00;;
48871;SDS011;36154;51.674;7.824;2023-04-01T05:46:36;0.20;;;0.10;;
48871;SDS011;36154;51.674;7.824;2023-04-01T05:49:02;0.10;;;0.10;;
48871;SDS011;36154;51.674;7.824;2023-04-01T05:51:27;0.40;;;0.10;;
48871;SDS011;36154;51.674;7.824;2023-04-01T05:53:52;0.15;;;0.10;;
48871;SDS011;36154;51.674;7.824;2023-04-01T05:56:18;0.10;;;0.10;;
48871;SDS011;36154;51.674;7.824;2023-04-01T05:58:43;0.08;;;0.08;;
48871;SDS011;36154;51.674;7.824;2023-04-01T06:01:15;0.10;;;0.10;;
48871;SDS011;36154;51.674;7.824;2023-04-01T06:03:40;0.10;;;0.10;;
48871;SDS011;36154;51.674;7.824;2023-04-01T06:06:09;0.00;;;0.00;;
48871;SDS011;36154;51.674;7.824;2023-04-01T06:08:39;0.10;;;0.10;;
48871;SDS011;36154;51.674;7.824;2023-04-01T06:16:55;0.00;;;0.00;;
48871;SDS011;36154;51.674;7.824;2023-04-01T06:30:44;5.82;;;0.10;;
48871;SDS011;36154;51.674;7.824;2023-04-01T06:33:29;0.10;;;0.10;;
48871;SDS011;36154;51.674;7.824;2023-04-01T06:45:13;0.10;;;0.10;;
48871;SDS011;36154;51.674;7.824;2023-04-01T06:48:02;0.10;;;0.10;;
48871;SDS011;36154;51.674;7.824;2023-04-01T06:53:20;0.10;;;0.10;;
48871;SDS011;36154;51.674;7.824;2023-04-01T06:55:51;0.03;;;0.03;;
48871;SDS011;36154;51.674;7.824;2023-04-01T06:58:23;1.92;;;0.13;;
48871;SDS011;36154;51.674;7.824;2023-04-01T07:00:53;0.50;;;0.10;;
48871;SDS011;36154;51.674;7.824;2023-04-01T07:06:56;0.10;;;0.10;;
48871;SDS011;36154;51.674;7.824;2023-04-01T07:09:02;1.08;;;0.50;;
48871;SDS011;36154;51.674;7.824;2023-04-01T07:11:32;4.93;;;1.45;;
48871;SDS011;36154;51.674;7.824;2023-04-01T07:22:21;6.20;;;1.90;;
48871;SDS011;36154;51.674;7.824;2023-04-01T07:24:49;5.65;;;1.77;;
48871;SDS011;36154;51.674;7.824;2023-04-01T07:27:16;3.58;;;1.58;;
48871;SDS011;36154;51.674;7.824;2023-04-01T07:29:41;6.30;;;1.45;;
48871;SDS011;36154;51.674;7.824;2023-04-01T07:32:27;6.63;;;1.70;;
48871;SDS011;36154;51.674;7.824;2023-04-01T07:35:02;5.57;;;1.35;;
48871;SDS011;36154;51.674;7.824;2023-04-01T07:37:46;1.60;;;1.20;;
48871;SDS011;36154;51.674;7.824;2023-04-01T07:40:41;4.10;;;1.55;;
48871;SDS011;36154;51.674;7.824;2023-04-01T07:49:14;5.78;;;1.45;;
48871;SDS011;36154;51.674;7.824;2023-04-01T08:10:52;2.40;;;0.95;;
48871;SDS011;36154;51.674;7.824;2023-04-01T08:21:52;1.58;;;1.02;;
48871;SDS011;36154;51.674;7.824;2023-04-01T08:26:55;2.38;;;0.95;;
48871;SDS011;36154;51.674;7.824;2023-04-01T08:29:32;3.60;;;1.02;;
48871;SDS011;36154;51.674;7.824;2023-04-01T08:32:36;1.15;;;0.52;;
48871;SDS011;36154;51.674;7.824;2023-04-01T08:37:34;1.70;;;0.80;;
48871;SDS011;36154;51.674;7.824;2023-04-01T08:40:13;1.75;;;0.80;;
48871;SDS011;36154;51.674;7.824;2023-04-01T08:59:59;0.52;;;0.38;;
48871;SDS011;36154;51.674;7.824;2023-04-01T09:02:49;0.57;;;0.50;;
48871;SDS011;36154;51.674;7.824;2023-04-01T09:05:34;1.05;;;0.43;;
48871;SDS011;36154;51.674;7.824;2023-04-01T09:08:12;2.42;;;0.70;;
48871;SDS011;36154;51.674;7.824;2023-04-01T09:10:55;0.50;;;0.35;;
48871;SDS011;36154;51.674;7.824;2023-04-01T09:19:30;0.55;;;0.30;;
48871;SDS011;36154;51.674;7.824;2023-04-01T09:24:51;0.90;;;0.50;;
48871;SDS011;36154;51.674;7.824;2023-04-01T09:27:32;0.90;;;0.40;;
48871;SDS011;36154;51.674;7.824;2023-04-01T09:32:59;0.40;;;0.40;;
48871;SDS011;36154;51.674;7.824;2023-04-01T09:35:45;0.93;;;0.50;;
48871;SDS011;36154;51.674;7.824;2023-04-01T09:40:53;1.13;;;0.40;;
48871;SDS011;36154;51.674;7.824;2023-04-01T09:43:39;0.85;;;0.43;;
48871;SDS011;36154;51.674;7.824;2023-04-01T09:46:31;2.60;;;0.40;;
48871;SDS011;36154;51.674;7.824;2023-04-01T11:15:04;1.42;;;0.40;;
48871;SDS011;36154;51.674;7.824;2023-04-01T11:20:45;0.40;;;0.22;;
48871;SDS011;36154;51.674;7.824;2023-04-01T11:26:20;0.38;;;0.38;;
48871;SDS011;36154;51.674;7.824;2023-04-01T11:29:18;0.80;;;0.32;;
48871;SDS011;36154;51.674;7.824;2023-04-01T11:32:07;0.32;;;0.30;;
48871;SDS011;36154;51.674;7.824;2023-04-01T11:37:36;0.30;;;0.30;;
48871;SDS011;36154;51.674;7.824;2023-04-01T11:43:28;1.67;;;0.50;;
48871;SDS011;36154;51.674;7.824;2023-04-01T11:46:10;1.08;;;0.35;;
48871;SDS011;36154;51.674;7.824;2023-04-01T11:48:47;0.35;;;0.35;;
48871;SDS011;36154;51.674;7.824;2023-04-01T12:00:01;0.90;;;0.60;;
48871;SDS011;36154;51.674;7.824;2023-04-01T12:10:19;1.00;;;0.73;;
48871;SDS011;36154;51.674;7.824;2023-04-01T12:26:04;0.60;;;0.60;;
48871;SDS011;36154;51.674;7.824;2023-04-01T12:31:27;0.40;;;0.40;;
48871;SDS011;36154;51.674;7.824;2023-04-01T12:34:00;0.77;;;0.70;;
48871;SDS011;36154;51.674;7.824;2023-04-01T12:39:14;0.50;;;0.50;;
48871;SDS011;36154;51.674;7.824;2023-04-01T12:47:10;0.50;;;0.50;;
48871;SDS011;36154;51.674;7.824;2023-04-01T12:58:06;0.70;;;0.70;;
48871;SDS011;36154;51.674;7.824;2023-04-01T13:09:24;0.98;;;0.90;;
48871;SDS011;36154;51.674;7.824;2023-04-01T13:12:07;0.70;;;0.70;;
48871;SDS011;36154;51.674;7.824;2023-04-01T13:17:47;2.45;;;0.90;;
48871;SDS011;36154;51.674;7.824;2023-04-01T13:31:53;1.85;;;1.20;;
48871;SDS011;36154;51.674;7.824;2023-04-01T13:34:34;0.77;;;0.77;;
48871;SDS011;36154;51.674;7.824;2023-04-01T13:42:25;1.00;;;1.00;;
48871;SDS011;36154;51.674;7.824;2023-04-01T13:45:00;0.75;;;0.75;;
48871;SDS011;36154;51.674;7.824;2023-04-01T13:53:17;2.85;;;0.82;;
48871;SDS011;36154;51.674;7.824;2023-04-01T13:59:01;0.70;;;0.70;;
48871;SDS011;36154;51.674;7.824;2023-04-01T14:07:44;0.70;;;0.70;;
48871;SDS011;36154;51.674;7.824;2023-04-01T14:10:38;0.60;;;0.60;;
48871;SDS011;36154;51.674;7.824;2023-04-01T14:21:51;0.70;;;0.70;;
48871;SDS011;36154;51.674;7.824;2023-04-01T14:24:36;0.63;;;0.60;;
48871;SDS011;36154;51.674;7.824;2023-04-01T14:27:13;0.40;;;0.40;;
48871;SDS011;36154;51.674;7.824;2023-04-01T14:40:20;0.40;;;0.40;;
48871;SDS011;36154;51.674;7.824;2023-04-01T14:45:45;1.50;;;0.60;;
48871;SDS011;36154;51.674;7.824;2023-04-01T14:48:32;0.60;;;0.60;;
48871;SDS011;36154;51.674;7.824;2023-04-01T14:51:48;0.50;;;0.50;;
48871;SDS011;36154;51.674;7.824;2023-04-01T14:53:53;0.30;;;0.30;;
48871;SDS011;36154;51.674;7.824;2023-04-01T14:59:10;2.10;;;0.60;;
48871;SDS011;36154;51.674;7.824;2023-04-01T15:07:20;1.95;;;0.75;;
48871;SDS011;36154;51.674;7.824;2023-04-01T15:09:59;2.47;;;0.75;;
48871;SDS011;36154;51.674;7.824;2023-04-01T15:12:38;2.45;;;0.60;;
48871;SDS011;36154;51.674;7.824;2023-04-01T15:15:27;5.75;;;0.63;;
48871;SDS011;36154;51.674;7.824;2023-04-01T15:18:05;2.58;;;0.70;;
48871;SDS011;36154;51.674;7.824;2023-04-01T15:26:02;2.40;;;0.90;;
48871;SDS011;36154;51.674;7.824;2023-04-01T15:31:23;4.47;;;0.65;;
48871;SDS011;36154;51.674;7.824;2023-04-01T15:34:04;5.57;;;1.08;;
48871;SDS011;36154;51.674;7.824;2023-04-01T15:37:03;5.05;;;1.38;;
48871;SDS011;36154;51.674;7.824;2023-04-01T15:42:31;4.32;;;1.27;;
48871;SDS011;36154;51.674;7.824;2023-04-01T15:47:34;6.77;;;1.83;;
48871;SDS011;36154;51.674;7.824;2023-04-01T15:50:19;11.43;;;2.30;;
48871;SDS011;36154;51.674;7.824;2023-04-01T15:53:02;5.00;;;1.65;;
48871;SDS011;36154;51.674;7.824;2023-04-01T16:09:21;3.30;;;1.60;;
48871;SDS011;36154;51.674;7.824;2023-04-01T16:23:16;6.55;;;2.20;;
48871;SDS011;36154;51.674;7.824;2023-04-01T16:26:32;6.43;;;2.30;;
48871;SDS011;36154;51.674;7.824;2023-04-01T16:28:53;6.28;;;2.28;;
48871;SDS011;36154;51.674;7.824;2023-04-01T16:31:29;4.90;;;2.03;;
48871;SDS011;36154;51.674;7.824;2023-04-01T16:34:07;4.68;;;2.15;;
48871;SDS011;36154;51.674;7.824;2023-04-01T16:36:47;3.17;;;1.70;;
48871;SDS011;36154;51.674;7.824;2023-04-01T16:39:27;3.90;;;1.83;;
48871;SDS011;36154;51.674;7.824;2023-04-01T16:45:14;7.00;;;2.00;;
48871;SDS011;36154;51.674;7.824;2023-04-01T16:47:40;3.35;;;1.42;;
48871;SDS011;36154;51.674;7.824;2023-04-01T16:58:27;5.38;;;2.00;;
48871;SDS011;36154;51.674;7.824;2023-04-01T17:01:05;4.03;;;1.40;;
48871;SDS011;36154;51.674;7.824;2023-04-01T17:06:28;2.47;;;1.60;;
48871;SDS011;36154;51.674;7.824;2023-04-01T17:11:45;3.28;;;1.65;;
48871;SDS011;36154;51.674;7.824;2023-04-01T17:14:33;1.90;;;1.60;;
48871;SDS011;36154;51.674;7.824;2023-04-01T17:20:10;3.65;;;1.52;;
48871;SDS011;36154;51.674;7.824;2023-04-01T17:22:59;4.75;;;1.50;;
48871;SDS011;36154;51.674;7.824;2023-04-01T17:31:37;2.08;;;1.10;;
48871;SDS011;36154;51.674;7.824;2023-04-01T17:48:15;3.20;;;1.50;;
48871;SDS011;36154;51.674;7.824;2023-04-01T17:50:51;5.30;;;1.60;;
48871;SDS011;36154;51.674;7.824;2023-04-01T17:56:14;3.00;;;0.90;;
48871;SDS011;36154;51.674;7.824;2023-04-01T18:10:11;5.00;;;1.30;;
48871;SDS011;36154;51.674;7.824;2023-04-01T18:18:46;2.50;;;1.17;;
48871;SDS011;36154;51.674;7.824;2023-04-01T18:26:38;1.15;;;1.00;;
48871;SDS011;36154;51.674;7.824;2023-04-01T18:31:44;2.97;;;1.17;;
48871;SDS011;36154;51.674;7.824;2023-04-01T18:34:39;7.82;;;1.20;;
48871;SDS011;36154;51.674;7.824;2023-04-01T18:37:25;2.25;;;1.25;;
48871;SDS011;36154;51.674;7.824;2023-04-01T18:39:57;3.22;;;1.20;;
48871;SDS011;36154;51.674;7.824;2023-04-01T18:42:43;1.73;;;1.10;;
48871;SDS011;36154;51.674;7.824;2023-04-01T18:45:26;2.42;;;1.15;;
48871;SDS011;36154;51.674;7.824;2023-04-01T18:48:03;1.27;;;1.17;;
48871;SDS011;36154;51.674;7.824;2023-04-01T18:50:38;1.65;;;1.40;;
48871;SDS011;36154;51.674;7.824;2023-04-01T19:06:49;2.28;;;1.38;;
48871;SDS011;36154;51.674;7.824;2023-04-01T19:11:58;1.20;;;1.10;;
48871;SDS011;36154;51.674;7.824;2023-04-01T19:17:47;3.05;;;1.27;;
48871;SDS011;36154;51.674;7.824;2023-04-01T19:25:54;1.10;;;1.00;;
48871;SDS011;36154;51.674;7.824;2023-04-01T19:36:31;1.13;;;1.13;;
48871;SDS011;36154;51.674;7.824;2023-04-01T19:39:17;1.42;;;1.10;;
48871;SDS011;36154;51.674;7.824;2023-04-01T19:45:00;1.30;;;1.15;;
48871;SDS011;36154;51.674;7.824;2023-04-01T19:50:27;1.50;;;1.30;;
48871;SDS011;36154;51.674;7.824;2023-04-01T19:53:06;3.55;;;1.10;;
48871;SDS011;36154;51.674;7.824;2023-04-01T19:55:56;1.00;;;1.00;;
48871;SDS011;36154;51.674;7.824;2023-04-01T20:01:06;1.30;;;1.17;;
48871;SDS011;36154;51.674;7.824;2023-04-01T20:06:02;2.78;;;0.93;;
48871;SDS011;36154;51.674;7.824;2023-04-01T20:14:26;1.20;;;1.10;;
48871;SDS011;36154;51.674;7.824;2023-04-01T20:22:19;1.70;;;1.10;;
48871;SDS011;36154;51.674;7.824;2023-04-01T20:24:53;1.30;;;1.20;;
48871;SDS011;36154;51.674;7.824;2023-04-01T20:27:32;0.80;;;0.80;;
48871;SDS011;36154;51.674;7.824;2023-04-01T20:30:06;1.30;;;1.20;;
48871;SDS011;36154;51.674;7.824;2023-04-01T20:33:03;2.65;;;0.93;;
48871;SDS011;36154;51.674;7.824;2023-04-01T20:39:02;0.82;;;0.82;;
48871;SDS011;36154;51.674;7.824;2023-04-01T20:50:06;1.00;;;1.00;;
48871;SDS011;36154;51.674;7.824;2023-04-01T20:53:04;0.90;;;0.90;;
48871;SDS011;36154;51.674;7.824;2023-04-01T20:58:43;0.90;;;0.90;;
48871;SDS011;36154;51.674;7.824;2023-04-01T21:07:04;0.65;;;0.65;;
48871;SDS011;36154;51.674;7.824;2023-04-01T21:30:16;1.67;;;0.82;;
48871;SDS011;36154;51.674;7.824;2023-04-01T21:33:00;0.80;;;0.80;;
48871;SDS011;36154;51.674;7.824;2023-04-01T21:35:44;0.73;;;0.73;;
48871;SDS011;36154;51.674;7.824;2023-04-01T21:44:26;0.80;;;0.80;;
48871;SDS011;36154;51.674;7.824;2023-04-01T21:55:48;0.80;;;0.80;;
48871;SDS011;36154;51.674;7.824;2023-04-01T21:58:32;1.45;;;0.80;;
48871;SDS011;36154;51.674;7.824;2023-04-01T22:07:17;0.55;;;0.55;;
48871;SDS011;36154;51.674;7.824;2023-04-01T22:09:49;0.50;;;0.50;;
48871;SDS011;36154;51.674;7.824;2023-04-01T22:12:37;0.40;;;0.40;;
48871;SDS011;36154;51.674;7.824;2023-04-01T22:28:11;0.20;;;0.20;;
48871;SDS011;36154;51.674;7.824;2023-04-01T22:30:51;0.10;;;0.10;;
48871;SDS011;36154;51.674;7.824;2023-04-01T22:33:21;0.20;;;0.20;;
48871;SDS011;36154;51.674;7.824;2023-04-01T22:36:23;0.22;;;0.22;;
48871;SDS011;36154;51.674;7.824;2023-04-01T22:39:23;1.60;;;0.40;;
48871;SDS011;36154;51.674;7.824;2023-04-01T22:42:02;0.40;;;0.40;;
48871;SDS011;36154;51.674;7.824;2023-04-01T22:44:51;0.40;;;0.40;;
48871;SDS011;36154;51.674;7.824;2023-04-01T22:50:35;0.40;;;0.40;;
48871;SDS011;36154;51.674;7.824;2023-04-01T22:55:38;0.47;;;0.47;;
48871;SDS011;36154;51.674;7.824;2023-04-01T22:58:07;0.60;;;0.50;;
48871;SDS011;36154;51.674;7.824;2023-04-01T23:00:38;0.60;;;0.60;;
48871;SDS011;36154;51.674;7.824;2023-04-01T23:06:02;0.50;;;0.50;;
48871;SDS011;36154;51.674;7.824;2023-04-01T23:19:33;0.45;;;0.45;;
48871;SDS011;36154;51.674;7.824;2023-04-01T23:24:56;0.40;;;0.40;;
48871;SDS011;36154;51.674;7.824;2023-04-01T23:27:36;0.50;;;0.50;;
48871;SDS011;36154;51.674;7.824;2023-04-01T23:33:36;0.50;;;0.50;;
48871;SDS011;36154;51.674;7.824;2023-04-01T23:36:02;0.60;;;0.60;;
48871;SDS011;36154;51.674;7.824;2023-04-01T23:38:38;0.55;;;0.55;;
48871;SDS011;36154;51.674;7.824;2023-04-01T23:41:06;0.50;;;0.50;;
48871;SDS011;36154;51.674;7.824;2023-04-01T23:43:37;0.43;;;0.43;;
48871;SDS011;36154;51.674;7.824;2023-04-01T23:46:05;0.50;;;0.50;;
48871;SDS011;36154;51.674;7.824;2023-04-01T23:48:38;0.45;;;0.45;;
48871;SDS011;36154;51.674;7.824;2023-04-01T23:51:46;0.55;;;0.50;;
48871;SDS011;36154;51.674;7.824;2023-04-01T23:56:40;0.50;;;0.50;;
48871;SDS011;36154;51.674;7.824;2023-04-01T23:59:16;0.43;;;0.43;;
